Rankings de siempre
Mejores tiempos personales válidos de equipo a través de todos los eventos y temporadas. Cada equipo aparece una vez por división.
Busca por nombre y abre la página donde está clasificado este récord de división.
134,451 equipos clasificados
| Pos. | Pos. AG | Equipo | Nacionalidad | Categoría de edad | TiempoMejor tiempo | Diferencia |
|---|---|---|---|---|---|---|
| 133276 | #20344 | Cindy Guerin & Axelle DhontFRA · X 25-29 · AG #20344 | FRA | X 25-29 | 2:15:25 | +86:12 |
| 133277 | -- | Frederick Lüning & Nienke LüningGER · X XU29 | GER | X XU29 | 2:15:26 | +86:13 |
| 133278 | -- | Anne Alefosio & Martin EmelioNZL · X XU29 | NZL | X XU29 | 2:15:26 | +86:13 |
| 133279 | #46487 | Jennifer Smith & Paul ClarkGBR · X 30-34 · AG #46487 | GBR | X 30-34 | 2:15:26 | +86:13 |
| 133280 | #4551 | Carlos Alfonso Aragón Díaz & Laura Guadalupe Díaz CortezMEX · X 45-49 · AG #4551 | MEX | X 45-49 | 2:15:26 | +86:13 |
| 133281 | #17994 | Flora Jika & James Jojo AmissahRSA · X 40-44 · AG #17994 | RSA | X 40-44 | 2:15:28 | +86:15 |
| 133282 | #17995 | Mariana Leon & Luis Edgardo González BustamanteMEX · X 40-44 · AG #17995 | MEX | X 40-44 | 2:15:29 | +86:16 |
| 133283 | #4552 | Jacqueline Malasaga & Jay MalasagaPHI · X 45-49 · AG #4552 | PHI | X 45-49 | 2:15:29 | +86:16 |
| 133284 | #3161 | Paul Kirby & Hannah StaplefordGBR · X 50-54 · AG #3161 | GBR | X 50-54 | 2:15:30 | +86:17 |
| 133285 | #46488 | Josh Alferez & Jennifer MacphersonCAN · X 30-34 · AG #46488 | CAN | X 30-34 | 2:15:31 | +86:18 |
| 133286 | #9104 | Ines Ohrel & Clement HospitalierFRA · X 16-24 · AG #9104 | FRA | X 16-24 | 2:15:31 | +86:18 |
| 133287 | #578 | SYLVIE MANZAROLI & Alain ANDREFRA · X 55-59 · AG #578 | FRA | X 55-59 | 2:15:31 | +86:18 |
| 133288 | #46489 | Philippe Tamvakis & Annelise ViéFRA · X 30-34 · AG #46489 | FRA | X 30-34 | 2:15:33 | +86:20 |
| 133289 | #16655 | Matthew Berka & Megan BerkaUSA · X 35-39 · AG #16655 | USA | X 35-39 | 2:15:33 | +86:20 |
| 133290 | #20345 | Austin Duits & Hannah MacvicarUSA · X 25-29 · AG #20345 | USA | X 25-29 | 2:15:34 | +86:21 |
| 133291 | #20346 | Ryan Seow & Nabilah ImanSIN · X 25-29 · AG #20346 | SIN | X 25-29 | 2:15:34 | +86:21 |
| 133292 | #17996 | Joy Foo & Gunnar OngSIN · X 40-44 · AG #17996 | SIN | X 40-44 | 2:15:35 | +86:22 |
| 133293 | #17997 | Craig Scott & Olisia KILIPENKOX 40-44 · AG #17997 | -- | X 40-44 | 2:15:35 | +86:22 |
| 133294 | #17998 | Bishal BALLAV Laskar & Rita AnandIND · X 40-44 · AG #17998 | IND | X 40-44 | 2:15:37 | +86:24 |
| 133295 | #46490 | Sivakorn Santikarn & Wiphawan VaewmaneeTHA · X 30-34 · AG #46490 | THA | X 30-34 | 2:15:37 | +86:24 |
| 133296 | #3162 | Dominggus Adi Prasetya & Dwi Andriana DewiINA · X 50-54 · AG #3162 | INA | X 50-54 | 2:15:37 | +86:24 |
| 133297 | #20347 | Hannia Monserrat Bruno Romero & Carlos A Rodolfo Bruno RomeroMEX · X 25-29 · AG #20347 | MEX | X 25-29 | 2:15:38 | +86:25 |
| 133298 | #3163 | Seow Khoon Chua & Karen LeeSIN · X 50-54 · AG #3163 | SIN | X 50-54 | 2:15:38 | +86:25 |
| 133299 | #16656 | Renniel Chito Ang & Maruschka Rose Llini AngUSA · X 35-39 · AG #16656 | USA | X 35-39 | 2:15:38 | +86:25 |
| 133300 | -- | Zoe Welfare & Ben PorterGBR · X XU29 | GBR | X XU29 | 2:15:42 | +86:29 |
Página 5,332 de 5,379